Time;durP1;ratioP1;P1;durP2;ratioP2;P2;SDS_P1;SDS_P2;PMS_P1;PMS_P2;Temp;Humidity;BMP_temperature;BMP_pressure;BME280_temperature;BME280_humidity;BME280_pressure;Samples;Min_cycle;Max_cycle;Signal;HPM_P1;HPM_P2
2023/10/23 00:02:24;;;;;;;12.60;5.95;;;;;;;13.48;100.00;100379.59;5060893;28;20077;-81
2023/10/23 00:04:52;;;;;;;7.65;5.70;;;;;;;13.72;100.00;100420.25;5044077;28;20043;-81
2023/10/23 00:07:17;;;;;;;7.15;5.38;;;;;;;13.74;100.00;100421.69;5078826;28;20036;-81
2023/10/23 00:09:43;;;;;;;7.72;5.53;;;;;;;13.75;100.00;100425.22;5060746;28;20399;-81
2023/10/23 00:12:09;;;;;;;8.05;4.80;;;;;;;13.41;100.00;100424.81;5060908;28;20040;-81
2023/10/23 00:14:34;;;;;;;7.25;4.75;;;;;;;13.71;100.00;100421.28;5072283;28;20020;-81
2023/10/23 00:17:00;;;;;;;8.68;4.90;;;;;;;13.74;100.00;100427.09;5101368;28;20025;-81
2023/10/23 00:19:26;;;;;;;6.95;4.57;;;;;;;13.77;100.00;100417.66;5078343;28;20407;-81
2023/10/23 00:21:51;;;;;;;7.78;4.30;;;;;;;13.73;100.00;100413.78;5079004;28;20084;-81
2023/10/23 00:24:17;;;;;;;5.97;4.07;;;;;;;13.46;100.00;100389.81;5078589;28;20117;-81
2023/10/23 00:26:42;;;;;;;4.60;3.80;;;;;;;13.68;100.00;100419.88;5078278;28;20522;-81
2023/10/23 00:29:08;;;;;;;6.60;4.00;;;;;;;13.79;100.00;100421.81;5061481;28;20040;-81
2023/10/23 00:31:33;;;;;;;5.30;4.07;;;;;;;13.68;100.00;100424.47;5062837;28;20040;-81
2023/10/23 00:33:59;;;;;;;5.35;3.90;;;;;;;13.86;100.00;100422.53;5080418;28;20033;-81
2023/10/23 00:36:24;;;;;;;6.30;3.70;;;;;;;13.67;100.00;100433.63;5064004;28;20021;-81
2023/10/23 00:38:50;;;;;;;6.47;4.00;;;;;;;13.77;100.00;100428.50;5064180;28;20024;-81
2023/10/23 00:41:15;;;;;;;4.57;3.63;;;;;;;13.65;100.00;100408.72;5078832;28;20399;-81
2023/10/23 00:43:42;;;;;;;3.95;3.45;;;;;;;13.70;100.00;100411.53;5077491;28;20096;-81
2023/10/23 00:46:14;;;;;;;4.75;3.80;;;;;;;13.78;100.00;100424.75;5060142;28;20028;-80
2023/10/23 00:48:40;;;;;;;5.13;3.88;;;;;;;13.78;100.00;100430.97;5075576;28;20039;-81
2023/10/23 00:51:06;;;;;;;5.95;4.20;;;;;;;13.90;100.00;100431.00;5074902;28;20092;-81
2023/10/23 00:53:36;;;;;;;5.47;3.92;;;;;;;13.95;100.00;100427.63;5073459;28;20021;-81
2023/10/23 00:56:06;;;;;;;6.35;4.47;;;;;;;13.80;100.00;100399.09;5078441;28;20025;-80
2023/10/23 00:58:33;;;;;;;5.07;4.05;;;;;;;13.85;100.00;100401.97;5095691;28;20045;-81
2023/10/23 01:01:01;;;;;;;6.05;4.10;;;;;;;13.59;100.00;100367.19;5074509;28;20032;-81
2023/10/23 01:03:26;;;;;;;5.55;4.22;;;;;;;14.03;100.00;100435.41;5073464;28;20468;-80
2023/10/23 01:05:52;;;;;;;5.22;3.95;;;;;;;13.92;100.00;100415.38;5074540;28;20054;-81
2023/10/23 01:08:18;;;;;;;4.50;3.83;;;;;;;13.89;100.00;100413.13;5073740;28;20020;-81
2023/10/23 01:10:45;;;;;;;5.22;3.58;;;;;;;14.02;100.00;100439.16;5057706;28;20035;-81
2023/10/23 01:13:12;;;;;;;4.05;2.72;;;;;;;13.93;100.00;100419.72;5072230;28;20032;-81
2023/10/23 01:15:37;;;;;;;5.53;2.85;;;;;;;14.05;100.00;100442.22;5090940;28;20052;-81
2023/10/23 01:18:03;;;;;;;6.53;2.60;;;;;;;13.98;100.00;100436.09;5056171;28;20036;-81
2023/10/23 01:20:32;;;;;;;5.63;2.53;;;;;;;14.06;100.00;100443.06;5056237;28;20661;-81
2023/10/23 01:22:59;;;;;;;5.55;1.70;;;;;;;14.05;100.00;100444.13;5088390;28;20024;-80
2023/10/23 01:25:25;;;;;;;6.35;1.73;;;;;;;14.08;100.00;100441.78;5074634;28;20040;-80
2023/10/23 01:27:50;;;;;;;8.27;2.10;;;;;;;14.09;100.00;100443.41;5071102;28;20040;-80
2023/10/23 01:30:16;;;;;;;7.38;1.70;;;;;;;14.06;100.00;100432.22;5070591;28;20388;-80
2023/10/23 01:32:42;;;;;;;4.15;1.20;;;;;;;13.83;100.00;100389.72;5071976;28;20045;-80
2023/10/23 01:35:10;;;;;;;7.22;1.40;;;;;;;14.11;100.00;100435.09;5070516;28;20154;-80
2023/10/23 01:37:36;;;;;;;8.70;1.40;;;;;;;13.94;100.00;100428.66;5070776;28;20025;-80
2023/10/23 01:40:03;;;;;;;7.10;1.38;;;;;;;14.09;100.00;100448.81;5056852;28;20371;-81
2023/10/23 01:42:31;;;;;;;6.50;1.23;;;;;;;14.07;100.00;100444.69;5080468;28;20074;-80
2023/10/23 01:44:57;;;;;;;7.05;1.08;;;;;;;14.12;100.00;100446.72;5071758;28;20123;-80
2023/10/23 01:47:24;;;;;;;7.95;1.30;;;;;;;13.98;100.00;100436.09;5070426;28;20115;-81
2023/10/23 01:49:49;;;;;;;8.35;1.38;;;;;;;13.61;100.00;100365.09;5073468;28;20020;-80
2023/10/23 01:52:15;;;;;;;5.60;1.48;;;;;;;14.05;100.00;100444.13;5054328;28;20032;-80
2023/10/23 01:54:40;;;;;;;6.47;1.27;;;;;;;13.99;100.00;100455.84;5071072;28;20031;-80
2023/10/23 01:57:06;;;;;;;5.95;1.20;;;;;;;13.96;100.00;100449.03;5070210;28;20490;-80
2023/10/23 01:59:31;;;;;;;8.32;1.27;;;;;;;13.99;100.00;100458.56;5054077;28;20043;-80
2023/10/23 02:01:57;;;;;;;8.15;1.85;;;;;;;13.96;100.00;100462.53;5053832;28;20036;-80
2023/10/23 02:04:22;;;;;;;7.35;1.17;;;;;;;13.88;100.00;100452.06;5070388;28;20086;-80
2023/10/23 02:06:48;;;;;;;4.47;1.23;;;;;;;13.95;100.00;100466.31;5070776;28;20035;-80
2023/10/23 02:09:13;;;;;;;5.32;1.10;;;;;;;13.91;100.00;100466.97;5037118;28;20025;-80
2023/10/23 02:11:38;;;;;;;8.60;1.33;;;;;;;13.86;100.00;100473.09;5052838;28;20024;-81
2023/10/23 02:14:06;;;;;;;5.95;1.05;;;;;;;13.91;100.00;100473.25;5053441;28;20028;-80
2023/10/23 02:16:32;;;;;;;5.38;0.88;;;;;;;13.93;100.00;100481.13;5070989;28;20028;-80
2023/10/23 02:18:58;;;;;;;3.58;0.98;;;;;;;13.81;100.00;100471.09;5052731;28;20067;-80
2023/10/23 02:21:23;;;;;;;4.68;0.80;;;;;;;13.77;100.00;100474.47;5072313;28;20032;-80
2023/10/23 02:23:48;;;;;;;6.22;0.98;;;;;;;13.77;100.00;100477.16;5063663;28;20028;-80
2023/10/23 02:26:14;;;;;;;11.32;1.40;;;;;;;13.82;100.00;100480.03;5054330;28;20048;-80
2023/10/23 02:28:40;;;;;;;7.07;1.20;;;;;;;13.77;100.00;100483.38;5070698;28;20487;-80
2023/10/23 02:31:06;;;;;;;4.55;1.00;;;;;;;13.75;100.00;100480.09;5053539;28;20476;-80
2023/10/23 02:33:31;;;;;;;8.88;1.10;;;;;;;13.71;100.00;100472.66;5053538;28;20422;-80
2023/10/23 02:35:58;;;;;;;11.52;1.98;;;;;;;13.83;100.00;100495.19;5069605;28;20047;-81
2023/10/23 02:38:23;;;;;;;9.13;1.35;;;;;;;13.84;100.00;100494.13;5069531;28;20119;-80
2023/10/23 02:40:52;;;;;;;7.72;1.50;;;;;;;13.66;100.00;100462.53;5086556;28;20116;-80
2023/10/23 02:43:18;;;;;;;12.43;1.65;;;;;;;13.85;100.00;100495.78;5072249;28;20411;-80
2023/10/23 02:45:44;;;;;;;9.68;1.85;;;;;;;13.79;100.00;100499.41;5075896;28;20048;-80
2023/10/23 02:48:10;;;;;;;9.50;1.73;;;;;;;13.80;100.00;100498.34;5072384;28;20509;-81
2023/10/23 02:50:35;;;;;;;9.77;1.58;;;;;;;13.81;100.00;100498.13;5074464;28;20032;-80
2023/10/23 02:53:01;;;;;;;8.88;1.73;;;;;;;13.84;100.00;100502.22;5073066;28;20104;-80
2023/10/23 02:55:26;;;;;;;7.65;1.55;;;;;;;13.86;100.00;100509.06;5073281;28;20487;-80
2023/10/23 02:57:53;;;;;;;8.35;1.67;;;;;;;13.78;100.00;100498.59;5054911;28;20513;-80
2023/10/23 03:00:21;;;;;;;8.40;1.52;;;;;;;13.82;100.00;100507.06;5054630;28;20040;-80
2023/10/23 03:02:46;;;;;;;12.07;2.25;;;;;;;13.89;100.00;100518.63;5071331;28;20043;-80
2023/10/23 03:05:13;;;;;;;13.93;2.25;;;;;;;13.93;100.00;100516.28;5071215;28;20032;-80
2023/10/23 03:07:39;;;;;;;13.00;2.33;;;;;;;13.70;100.00;100492.66;5038772;28;20036;-80
2023/10/23 03:10:05;;;;;;;10.38;2.20;;;;;;;13.75;100.00;100517.16;5055347;28;20372;-80
2023/10/23 03:12:32;;;;;;;11.95;2.10;;;;;;;13.77;100.00;100520.44;5089953;28;20032;-80
2023/10/23 03:14:57;;;;;;;13.50;2.30;;;;;;;13.66;100.00;100504.97;5055874;28;20035;-80
2023/10/23 03:17:22;;;;;;;12.27;1.95;;;;;;;13.83;100.00;100523.06;5057197;28;20028;-80
2023/10/23 03:19:48;;;;;;;9.43;1.70;;;;;;;13.40;100.00;100447.47;5056795;28;20024;-80
2023/10/23 03:22:13;;;;;;;11.25;1.95;;;;;;;13.81;100.00;100527.88;5074790;28;20064;-80
2023/10/23 03:24:39;;;;;;;13.98;2.03;;;;;;;13.85;100.00;100526.38;5057821;28;20082;-80
2023/10/23 03:27:05;;;;;;;7.45;2.22;;;;;;;13.76;100.00;100519.59;5056514;28;20120;-80
2023/10/23 03:29:30;;;;;;;10.48;1.50;;;;;;;13.85;100.00;100522.84;5073405;28;20043;-80
2023/10/23 03:31:56;;;;;;;12.88;1.65;;;;;;;13.76;100.00;100521.50;5073589;28;20020;-80
2023/10/23 03:34:25;;;;;;;8.38;1.33;;;;;;;13.81;100.00;100530.59;5074048;28;20107;-80
2023/10/23 03:36:51;;;;;;;12.70;1.65;;;;;;;13.81;100.00;100527.88;5073832;28;20067;-80
2023/10/23 03:39:16;;;;;;;9.68;1.63;;;;;;;13.82;100.00;100531.41;5074200;28;20075;-80
2023/10/23 03:41:42;;;;;;;12.95;2.00;;;;;;;13.81;100.00;100527.06;5055487;28;20024;-80
2023/10/23 03:44:08;;;;;;;14.48;2.00;;;;;;;13.77;100.00;100517.72;5072165;28;20501;-81
2023/10/23 03:46:33;;;;;;;11.32;1.88;;;;;;;13.82;100.00;100528.69;5055558;28;20032;-80
2023/10/23 03:49:00;;;;;;;10.63;1.80;;;;;;;13.84;100.00;100534.69;5073255;28;20036;-81
2023/10/23 03:51:25;;;;;;;15.98;2.40;;;;;;;13.56;100.00;100486.59;5072198;28;20073;-80
2023/10/23 03:53:51;;;;;;;7.82;1.90;;;;;;;13.82;100.00;100536.81;5054520;28;20418;-80
2023/10/23 03:56:16;;;;;;;7.57;1.70;;;;;;;13.74;100.00;100537.09;5071825;28;20021;-80
2023/10/23 03:58:44;;;;;;;12.75;2.00;;;;;;;13.49;100.00;100486.66;5071710;28;20060;-80
2023/10/23 04:01:10;;;;;;;12.23;2.03;;;;;;;13.81;100.00;100537.88;5054990;28;20564;-80
2023/10/23 04:03:37;;;;;;;10.48;1.88;;;;;;;13.79;100.00;100535.38;5088870;28;20043;-80
2023/10/23 04:06:03;;;;;;;9.75;1.90;;;;;;;13.77;100.00;100536.66;5055278;28;20395;-80
2023/10/23 04:08:29;;;;;;;9.43;1.80;;;;;;;13.67;100.00;100539.88;5071395;28;20040;-80
2023/10/23 04:10:55;;;;;;;7.82;1.70;;;;;;;13.70;100.00;100542.13;5070275;28;20040;-80
2023/10/23 04:13:20;;;;;;;10.93;1.80;;;;;;;13.68;100.00;100544.25;5054761;28;20024;-81
2023/10/23 04:15:57;;;;;;;4.82;1.40;;;;;;;13.44;100.00;100508.13;5055008;28;20498;-81
2023/10/23 04:18:26;;;;;;;15.43;1.95;;;;;;;13.74;100.00;100550.63;5071645;28;20121;-80
2023/10/23 04:21:21;;;;;;;10.98;1.70;;;;;;;13.81;100.00;100546.00;5074114;28;20123;-80
2023/10/23 04:23:46;;;;;;;11.07;2.17;;;;;;;13.79;100.00;100553.50;5047894;28;20060;-80
2023/10/23 04:26:12;;;;;;;9.73;1.70;;;;;;;13.79;100.00;100550.78;5074695;28;20287;-80
2023/10/23 04:28:37;;;;;;;7.20;1.35;;;;;;;13.11;100.00;100451.72;5074209;28;20552;-80
2023/10/23 04:31:06;;;;;;;7.53;1.60;;;;;;;13.73;100.00;100555.22;5058952;28;20032;-80
2023/10/23 04:33:32;;;;;;;6.88;1.70;;;;;;;13.71;100.00;100551.94;5075259;28;20063;-80
2023/10/23 04:35:59;;;;;;;13.30;2.03;;;;;;;13.69;100.00;100559.44;5073246;28;20081;-80
2023/10/23 04:38:25;;;;;;;8.63;1.40;;;;;;;13.72;100.00;100553.56;5072344;28;20498;-80
2023/10/23 04:40:53;;;;;;;15.15;1.77;;;;;;;13.68;100.00;100551.56;5073943;28;20035;-79
2023/10/23 04:43:19;;;;;;;10.52;1.65;;;;;;;13.43;100.00;100519.19;5071624;28;20032;-79
2023/10/23 04:45:45;;;;;;;11.18;1.75;;;;;;;13.70;100.00;100557.53;5072052;28;20036;-80
2023/10/23 04:48:10;;;;;;;7.20;1.45;;;;;;;13.74;100.00;100564.16;5071710;28;20032;-80
2023/10/23 04:50:37;;;;;;;11.73;1.55;;;;;;;13.76;100.00;100565.59;5071403;28;20032;-80
2023/10/23 04:53:03;;;;;;;11.40;1.70;;;;;;;13.78;100.00;100571.59;5072896;28;20569;-80
2023/10/23 04:55:38;;;;;;;7.72;1.60;;;;;;;13.81;100.00;100568.44;5055051;28;20040;-80
2023/10/23 04:58:04;;;;;;;9.85;1.85;;;;;;;13.74;100.00;100569.56;5070693;28;20045;-79
2023/10/23 05:00:30;;;;;;;16.27;1.80;;;;;;;13.74;100.00;100573.13;5069564;28;20074;-80
2023/10/23 05:02:55;;;;;;;12.30;2.60;;;;;;;13.78;100.00;100574.31;5088620;28;20040;-79
2023/10/23 05:05:21;;;;;;;11.75;2.03;;;;;;;13.35;100.00;100523.84;5085569;28;20028;-79
2023/10/23 05:07:47;;;;;;;14.55;2.53;;;;;;;13.47;100.00;100544.69;5069206;28;20039;-79
2023/10/23 05:10:13;;;;;;;14.13;2.47;;;;;;;13.60;100.00;100575.09;5069010;28;20035;-80
2023/10/23 05:12:39;;;;;;;17.65;2.88;;;;;;;13.68;100.00;100586.72;5070427;28;20020;-79
2023/10/23 05:15:05;;;;;;;16.02;3.05;;;;;;;13.67;100.00;100580.44;5069091;28;20024;-79
2023/10/23 05:17:31;;;;;;;14.20;3.33;;;;;;;13.67;100.00;100591.25;5054205;28;20032;-79
2023/10/23 05:19:57;;;;;;;15.57;3.10;;;;;;;13.58;100.00;100581.81;5054001;28;20035;-79
2023/10/23 05:22:22;;;;;;;10.85;3.17;;;;;;;13.40;100.00;100563.69;5053789;28;20032;-80
2023/10/23 05:24:49;;;;;;;14.18;3.20;;;;;;;13.48;100.00;100560.72;5055659;28;20453;-80
2023/10/23 05:27:20;;;;;;;11.55;3.15;;;;;;;13.68;100.00;100594.81;5089122;28;20086;-80
2023/10/23 05:29:45;;;;;;;14.88;3.30;;;;;;;13.67;100.00;100591.25;5071589;28;20415;-80
2023/10/23 05:32:10;;;;;;;14.77;3.03;;;;;;;13.66;100.00;100591.50;5056185;28;20032;-79
2023/10/23 05:34:36;;;;;;;17.75;3.03;;;;;;;13.69;100.00;100604.56;5056852;28;20051;-79
2023/10/23 05:37:02;;;;;;;12.85;3.22;;;;;;;13.73;100.00;100605.78;5054644;28;20033;-80
2023/10/23 05:39:28;;;;;;;21.83;3.83;;;;;;;13.74;100.00;100604.72;5087492;28;20574;-80
2023/10/23 05:41:53;;;;;;;16.33;3.88;;;;;;;13.71;100.00;100603.31;5071356;28;20039;-79
2023/10/23 05:44:20;;;;;;;16.70;3.65;;;;;;;13.62;100.00;100599.22;5054166;28;20100;-80
2023/10/23 05:46:45;;;;;;;19.73;5.07;;;;;;;13.68;100.00;100611.03;5071429;28;20466;-79
2023/10/23 05:49:11;;;;;;;19.13;4.53;;;;;;;13.65;100.00;100601.50;5087333;28;20035;-79
2023/10/23 05:51:37;;;;;;;14.73;4.00;;;;;;;13.45;100.00;100590.06;5070540;28;20380;-79
2023/10/23 05:54:02;;;;;;;23.15;4.30;;;;;;;13.65;100.00;100625.00;5070673;28;20020;-79
2023/10/23 05:56:29;;;;;;;21.08;4.40;;;;;;;13.66;100.00;100630.19;5070139;28;20029;-79
2023/10/23 05:58:55;;;;;;;23.95;4.55;;;;;;;13.73;100.00;100622.00;5070014;28;20490;-79
2023/10/23 06:01:21;;;;;;;19.50;4.90;;;;;;;13.72;100.00;100632.00;5086916;28;20480;-79
2023/10/23 06:03:46;;;;;;;25.67;5.28;;;;;;;13.73;100.00;100635.50;5069921;28;20033;-79
2023/10/23 06:06:14;;;;;;;25.38;4.75;;;;;;;13.75;100.00;100636.94;5070850;28;20028;-79
2023/10/23 06:08:40;;;;;;;29.23;5.70;;;;;;;13.76;100.00;100648.59;5086821;28;20035;-78
2023/10/23 06:11:13;;;;;;;23.65;4.85;;;;;;;13.79;100.00;100645.44;5052515;28;20029;-78
2023/10/23 06:13:39;;;;;;;18.98;4.50;;;;;;;13.76;100.00;100651.28;5069767;28;20063;-79
2023/10/23 06:16:05;;;;;;;18.63;4.88;;;;;;;13.75;100.00;100646.94;5053234;28;20115;-79
2023/10/23 06:18:35;;;;;;;18.45;4.88;;;;;;;13.57;100.00;100624.22;5069692;28;20031;-79
2023/10/23 06:21:03;;;;;;;24.73;4.57;;;;;;;13.73;100.00;100662.56;5069664;28;20070;-78
2023/10/23 06:23:39;;;;;;;18.23;4.13;;;;;;;13.68;100.00;100655.13;5069833;28;20028;-79
2023/10/23 06:26:05;;;;;;;19.42;4.75;;;;;;;13.54;100.00;100637.34;5053873;28;20057;-79
2023/10/23 06:28:33;;;;;;;15.70;4.22;;;;;;;13.52;100.00;100647.59;5071392;28;20032;-78
2023/10/23 06:31:06;;;;;;;16.42;4.72;;;;;;;13.66;100.00;100665.31;5053340;28;20394;-79
2023/10/23 06:33:32;;;;;;;28.35;4.63;;;;;;;13.69;100.00;100673.00;5053064;28;20382;-79
2023/10/23 06:35:58;;;;;;;23.52;4.53;;;;;;;13.71;100.00;100673.59;5054127;28;20040;-79
2023/10/23 06:38:24;;;;;;;24.58;5.03;;;;;;;13.69;100.00;100681.09;5054006;28;20040;-79
2023/10/23 06:40:49;;;;;;;20.77;5.10;;;;;;;13.71;100.00;100673.59;5069054;28;20036;-79
2023/10/23 06:43:15;;;;;;;25.67;4.80;;;;;;;13.74;100.00;100678.56;5075824;28;20036;-79
2023/10/23 06:45:40;;;;;;;29.50;4.90;;;;;;;13.77;100.00;100674.56;5073267;28;20399;-79
2023/10/23 06:48:05;;;;;;;26.23;5.10;;;;;;;13.80;100.00;100676.84;5073175;28;20028;-79
2023/10/23 06:50:31;;;;;;;23.55;4.68;;;;;;;13.78;100.00;100674.38;5077699;28;20040;-79
2023/10/23 06:52:56;;;;;;;26.42;4.78;;;;;;;13.62;100.00;100651.44;5052788;28;20081;-79
2023/10/23 06:55:24;;;;;;;30.83;4.70;;;;;;;13.84;100.00;100683.44;5052857;28;20526;-79
2023/10/23 06:57:50;;;;;;;22.20;4.80;;;;;;;13.85;100.00;100694.06;5052911;28;20044;-79
2023/10/23 07:00:15;;;;;;;29.08;5.55;;;;;;;13.78;100.00;100676.25;5052555;28;20043;-78
2023/10/23 07:02:41;;;;;;;32.72;5.22;;;;;;;13.87;100.00;100696.53;5052939;28;20036;-78
2023/10/23 07:05:06;;;;;;;22.60;4.65;;;;;;;13.91;100.00;100691.50;5036735;28;20025;-78
2023/10/23 07:07:32;;;;;;;31.88;5.32;;;;;;;13.91;100.00;100688.78;5069621;28;20047;-79
2023/10/23 07:10:00;;;;;;;23.88;4.20;;;;;;;13.95;100.00;100685.44;5052447;28;20520;-79
2023/10/23 07:12:26;;;;;;;22.92;4.53;;;;;;;13.87;100.00;100677.59;5058144;28;20028;-79
2023/10/23 07:14:52;;;;;;;21.92;3.97;;;;;;;13.97;100.00;100699.56;5074452;28;20383;-79
2023/10/23 07:17:17;;;;;;;25.02;4.18;;;;;;;13.66;100.00;100648.28;5052962;28;20034;-79
2023/10/23 07:19:43;;;;;;;22.10;3.95;;;;;;;14.05;100.00;100703.84;5053137;28;20028;-79
2023/10/23 07:22:08;;;;;;;20.02;3.60;;;;;;;13.91;100.00;100677.97;5036519;28;20127;-79
2023/10/23 07:24:34;;;;;;;18.50;3.33;;;;;;;14.13;100.00;100710.84;5035877;28;20048;-79
2023/10/23 07:26:59;;;;;;;19.55;3.58;;;;;;;14.03;100.00;100695.13;5052710;28;20039;-79
2023/10/23 07:29:26;;;;;;;15.55;3.50;;;;;;;14.15;100.00;100700.63;5054181;28;20036;-79
2023/10/23 07:31:51;;;;;;;19.73;3.60;;;;;;;14.24;100.00;100710.94;5073082;28;20032;-79
2023/10/23 07:34:17;;;;;;;13.43;3.22;;;;;;;14.22;100.00;100714.91;5059937;28;20017;-79
2023/10/23 07:36:42;;;;;;;23.13;3.53;;;;;;;14.24;100.00;100712.81;5043171;28;20033;-78
2023/10/23 07:39:08;;;;;;;18.17;3.85;;;;;;;14.26;100.00;100719.63;5057842;28;20495;-79
2023/10/23 07:41:34;;;;;;;19.20;3.40;;;;;;;14.12;100.00;100692.94;5074157;28;20043;-79
2023/10/23 07:43:59;;;;;;;20.92;3.33;;;;;;;14.30;100.00;100720.00;5073758;28;20031;-78
2023/10/23 07:46:24;;;;;;;15.40;3.40;;;;;;;14.25;100.00;100709.03;5055791;28;20028;-78
2023/10/23 07:48:50;;;;;;;18.95;2.88;;;;;;;14.35;100.00;100720.16;5055524;28;20491;-79
2023/10/23 07:51:15;;;;;;;16.25;3.15;;;;;;;14.50;100.00;100736.00;5039411;28;20407;-79
2023/10/23 07:53:41;;;;;;;18.60;3.25;;;;;;;14.54;100.00;100729.97;5039398;28;20448;-79
2023/10/23 07:56:07;;;;;;;14.80;3.40;;;;;;;14.55;100.00;100747.84;5073850;28;20113;-79
2023/10/23 07:58:33;;;;;;;19.20;3.40;;;;;;;14.59;100.00;100748.22;5073867;28;20049;-79
2023/10/23 08:01:06;;;;;;;19.23;3.20;;;;;;;14.56;100.00;100752.22;5081048;28;20041;-78
2023/10/23 08:03:33;;;;;;;22.00;3.42;;;;;;;14.38;100.00;100733.25;5056400;28;20365;-79
2023/10/23 08:06:06;;;;;;;17.08;3.72;;;;;;;14.46;100.00;100742.94;5072690;28;20112;-79
2023/10/23 08:08:36;;;;;;;13.13;2.70;;;;;;;14.56;100.00;100752.22;5073902;28;20033;-79
2023/10/23 08:11:03;;;;;;;16.15;3.08;;;;;;;14.51;100.00;100752.06;5072244;28;20035;-79
2023/10/23 08:13:29;;;;;;;11.15;2.75;;;;;;;14.61;100.00;100766.97;5072699;28;20032;-78
2023/10/23 08:15:54;;;;;;;15.40;2.75;;;;;;;14.61;100.00;100769.69;5056317;28;20025;-79
2023/10/23 08:18:20;;;;;;;14.30;2.65;;;;;;;14.61;100.00;100769.69;5072255;28;20491;-79
2023/10/23 08:20:45;;;;;;;14.75;2.80;;;;;;;14.41;100.00;100776.13;5055680;28;20032;-79
2023/10/23 08:23:11;;;;;;;14.07;2.70;;;;;;;14.51;100.00;100762.09;5055411;28;20451;-79
2023/10/23 08:25:36;;;;;;;13.43;2.50;;;;;;;14.62;100.00;100777.56;5039157;28;20033;-79
2023/10/23 08:28:02;;;;;;;14.57;2.60;;;;;;;14.67;100.00;100774.16;5055421;28;20036;-79
2023/10/23 08:30:28;;;;;;;13.70;3.13;;;;;;;14.72;100.00;100777.84;5039013;28;20039;-79
2023/10/23 08:32:54;;;;;;;16.23;4.30;;;;;;;14.70;100.00;100773.72;5071682;28;20037;-79
2023/10/23 08:35:20;;;;;;;14.25;4.57;;;;;;;14.57;100.00;100758.47;5071382;28;20047;-79
2023/10/23 08:37:45;;;;;;;11.07;3.47;;;;;;;14.75;100.00;100784.72;5072092;28;20491;-79
2023/10/23 08:40:11;;;;;;;21.33;6.68;;;;;;;14.71;100.00;100778.91;5038403;28;20344;-79
2023/10/23 08:42:37;;;;;;;15.25;4.18;;;;;;;14.69;100.00;100788.31;5078527;28;20031;-79
2023/10/23 08:45:03;;;;;;;10.45;2.65;;;;;;;14.69;100.00;100788.31;5074572;28;20029;-79
2023/10/23 08:47:29;;;;;;;14.23;3.17;;;;;;;14.71;100.00;100786.22;5078054;28;20071;-79
2023/10/23 08:49:59;;;;;;;19.55;2.90;;;;;;;14.52;100.00;100756.44;5077507;28;20028;-79
2023/10/23 08:52:32;;;;;;;14.55;2.40;;;;;;;14.76;100.00;100800.72;5071645;28;20459;-79
2023/10/23 08:54:58;;;;;;;15.95;2.45;;;;;;;14.66;100.00;100767.09;5055939;28;20029;-83
2023/10/23 08:57:25;;;;;;;15.23;2.55;;;;;;;14.83;100.00;100792.50;5071214;28;20083;-79
2023/10/23 08:59:50;;;;;;;12.93;2.00;;;;;;;14.92;100.00;100793.03;5055111;28;20056;-79
2023/10/23 09:02:16;;;;;;;17.85;2.13;;;;;;;14.99;100.00;100800.00;5038011;28;20079;-79
2023/10/23 09:04:41;;;;;;;11.55;2.40;;;;;;;14.98;100.00;100795.66;5072481;28;20028;-79
2023/10/23 09:07:06;;;;;;;6.25;1.83;;;;;;;14.95;100.00;100798.81;5072307;28;20485;-79
2023/10/23 09:09:32;;;;;;;9.73;1.90;;;;;;;14.93;100.00;100794.69;5054234;28;20040;-79
2023/10/23 09:11:57;;;;;;;9.93;2.00;;;;;;;14.94;100.00;100799.06;5054218;28;20094;-79
2023/10/23 09:14:35;;;;;;;10.07;1.58;;;;;;;15.00;100.00;100804.41;5054271;28;20037;-79
2023/10/23 09:17:03;;;;;;;8.70;1.40;;;;;;;15.03;100.00;100803.94;5071688;28;20584;-79
2023/10/23 09:19:36;;;;;;;7.90;1.60;;;;;;;15.09;100.00;100801.34;5054891;28;20039;-79
2023/10/23 09:22:03;;;;;;;3.70;1.30;;;;;;;15.14;100.00;100815.06;5054942;28;20043;-79
2023/10/23 09:24:30;;;;;;;9.85;1.80;;;;;;;15.17;100.00;100806.47;5077139;28;20052;-79
2023/10/23 09:26:56;;;;;;;7.55;1.55;;;;;;;15.08;100.00;100786.16;5058452;28;20028;-79
2023/10/23 09:29:23;;;;;;;5.57;1.08;;;;;;;15.14;100.00;100810.47;5053637;28;20021;-79
2023/10/23 09:31:49;;;;;;;6.30;1.30;;;;;;;15.14;100.00;100806.94;5070863;28;20025;-79
2023/10/23 09:34:17;;;;;;;5.50;1.20;;;;;;;15.12;100.00;100809.84;5070571;28;20480;-78
2023/10/23 09:36:50;;;;;;;5.25;1.85;;;;;;;15.12;100.00;100819.88;5070712;28;20395;-79
2023/10/23 09:39:16;;;;;;;6.43;1.42;;;;;;;14.99;100.00;100794.59;5054252;28;20035;-79
2023/10/23 09:41:41;;;;;;;3.13;0.85;;;;;;;15.13;100.00;100826.94;5053206;28;20578;-79
2023/10/23 09:44:08;;;;;;;5.68;1.00;;;;;;;15.13;100.00;100829.66;5053034;28;20033;-79
2023/10/23 09:46:35;;;;;;;7.10;1.13;;;;;;;14.95;100.00;100815.09;5080384;28;20065;-80
2023/10/23 09:49:03;;;;;;;7.53;1.17;;;;;;;14.98;100.00;100808.38;5082295;28;20078;-79
2023/10/23 09:51:41;;;;;;;5.30;1.33;;;;;;;15.20;100.00;100839.38;5060900;28;20487;-80
2023/10/23 09:54:15;;;;;;;6.88;1.50;;;;;;;15.24;100.00;100834.31;5073778;28;20521;-78
2023/10/23 09:56:49;;;;;;;6.55;0.90;;;;;;;15.33;100.00;100838.38;5062301;28;20032;-79
2023/10/23 09:59:17;;;;;;;5.10;1.00;;;;;;;15.04;100.00;100848.13;5079811;28;20029;-78
2023/10/23 10:01:43;;;;;;;6.05;1.42;;;;;;;15.09;100.00;100836.59;5055438;28;20154;-79
2023/10/23 10:04:39;;;;;;;6.38;1.20;;;;;;;15.28;100.00;100828.19;5069871;28;20470;-79
2023/10/23 10:07:22;;;;;;;4.63;1.10;;;;;;;15.37;100.00;100834.13;5076463;28;20495;-79
2023/10/23 10:09:49;;;;;;;2.95;1.05;;;;;;;15.54;100.00;100849.75;5074665;28;20391;-79
2023/10/23 10:12:18;;;;;;;4.68;1.17;;;;;;;15.59;100.00;100841.75;5057641;28;20029;-78
2023/10/23 10:14:45;;;;;;;4.07;1.00;;;;;;;15.70;100.00;100849.94;5070473;28;20048;-78
2023/10/23 10:17:12;;;;;;;4.57;0.90;;;;;;;15.72;100.00;100852.41;5069395;28;20078;-78
2023/10/23 10:19:38;;;;;;;5.18;1.23;;;;;;;15.61;100.00;100836.91;5069808;28;20448;-78
2023/10/23 10:22:04;;;;;;;5.38;1.45;;;;;;;15.71;100.00;100850.78;5069107;28;20025;-78
2023/10/23 10:24:32;;;;;;;5.95;1.20;;;;;;;15.65;100.00;100835.38;5070775;28;20399;-79
2023/10/23 10:27:00;;;;;;;8.68;1.40;;;;;;;15.75;100.00;100846.53;5070815;28;20032;-78
2023/10/23 10:29:26;;;;;;;10.50;1.60;;;;;;;15.83;100.00;100846.22;5070899;28;20095;-78
2023/10/23 10:32:05;;;;;;;5.30;1.30;;;;;;;15.87;100.00;100841.97;5055454;28;20036;-79
2023/10/23 10:34:35;;;;;;;5.93;0.90;;;;;;;15.65;100.00;100843.53;5070376;28;20032;-79
2023/10/23 10:37:01;;;;;;;3.05;1.10;;;;;;;15.64;100.00;100844.59;5070085;28;20111;-78
2023/10/23 10:39:52;;;;;;;4.15;0.80;;;;;;;15.81;100.00;100847.50;5069344;28;20437;-79
2023/10/23 10:42:28;;;;;;;9.35;1.17;;;;;;;15.75;100.00;100841.09;5068644;28;20070;-79
2023/10/23 10:45:17;;;;;;;7.68;1.00;;;;;;;15.84;100.00;100847.03;5072139;28;20032;-78
2023/10/23 10:47:53;;;;;;;9.80;2.38;;;;;;;15.76;100.00;100836.50;5056588;28;20120;-78
2023/10/23 10:50:36;;;;;;;9.65;2.60;;;;;;;15.82;100.00;100841.81;5069637;28;20032;-78
2023/10/23 10:53:06;;;;;;;7.85;2.63;;;;;;;15.92;100.00;100852.94;5069623;28;20040;-79
2023/10/23 10:55:33;;;;;;;8.50;1.90;;;;;;;15.97;100.00;100850.34;5069601;28;20090;-79
2023/10/23 10:57:59;;;;;;;5.45;1.42;;;;;;;15.88;100.00;100835.47;5052655;28;20048;-79
2023/10/23 11:00:29;;;;;;;4.88;1.10;;;;;;;16.05;100.00;100845.66;5053106;28;20040;-79
2023/10/23 11:02:55;;;;;;;7.70;1.92;;;;;;;16.08;100.00;100846.00;5071304;28;20043;-79
2023/10/23 11:05:20;;;;;;;8.82;1.67;;;;;;;16.05;100.00;100832.91;5072494;28;20025;-79
2023/10/23 11:07:49;;;;;;;8.18;1.38;;;;;;;16.24;100.00;100844.47;5077173;28;20097;-79
2023/10/23 11:10:15;;;;;;;6.65;1.30;;;;;;;16.32;100.00;100854.97;5058030;28;20036;-79
2023/10/23 11:12:40;;;;;;;7.40;1.10;;;;;;;16.15;100.00;100816.03;5072479;28;20043;-79
2023/10/23 11:15:06;;;;;;;7.82;1.10;;;;;;;16.44;100.00;100850.38;5039264;28;20340;-78